createdAt,value
2023-01-30T00:02:45.442Z,73.20
2023-01-30T00:06:27.113Z,73.20
2023-01-30T00:10:09.122Z,73.20
2023-01-30T00:13:50.947Z,73.30
2023-01-30T00:17:32.589Z,73.20
2023-01-30T00:21:14.791Z,73.20
2023-01-30T00:24:56.593Z,73.20
2023-01-30T00:28:39.583Z,73.30
2023-01-30T00:32:21.231Z,73.30
2023-01-30T00:36:03.188Z,73.30
2023-01-30T00:39:44.818Z,73.30
2023-01-30T00:43:44.927Z,73.30
2023-01-30T00:47:26.529Z,73.30
2023-01-30T00:51:08.170Z,73.30
2023-01-30T00:54:51.437Z,73.30
2023-01-30T00:58:33.849Z,73.30
2023-01-30T01:02:15.549Z,73.30
2023-01-30T01:05:57.300Z,73.40
2023-01-30T01:09:39.006Z,73.40
2023-01-30T01:13:20.607Z,73.40
2023-01-30T01:17:02.230Z,73.30
2023-01-30T01:20:43.914Z,73.40
2023-01-30T01:24:25.639Z,73.30
2023-01-30T01:28:07.269Z,73.40
2023-01-30T01:31:48.918Z,73.40
2023-01-30T01:35:30.559Z,73.40
2023-01-30T01:39:12.193Z,73.40
2023-01-30T01:42:53.913Z,73.40
2023-01-30T01:46:42.348Z,73.50
2023-01-30T01:50:44.804Z,73.50
2023-01-30T01:54:29.958Z,73.50
2023-01-30T01:58:13.828Z,73.50
2023-01-30T02:02:00.078Z,73.50
2023-01-30T02:05:43.548Z,73.50
2023-01-30T02:09:25.355Z,73.50
2023-01-30T02:13:06.971Z,73.50
2023-01-30T02:16:48.722Z,73.50
2023-01-30T02:20:33.442Z,73.50
2023-01-30T02:24:33.738Z,73.50
2023-01-30T02:28:30.933Z,73.50
2023-01-30T02:32:24.386Z,73.50
2023-01-30T02:36:12.087Z,73.50
2023-01-30T02:40:05.913Z,73.50
2023-01-30T02:43:55.191Z,73.60
2023-01-30T02:47:36.781Z,73.60
2023-01-30T02:51:21.153Z,73.60
2023-01-30T02:55:07.146Z,73.60
2023-01-30T02:58:51.718Z,73.60
2023-01-30T03:02:42.207Z,73.60
2023-01-30T03:06:31.511Z,73.60
2023-01-30T03:10:13.096Z,73.60
2023-01-30T03:14:13.768Z,73.60
2023-01-30T03:17:56.059Z,73.60
2023-01-30T03:21:44.793Z,73.60
2023-01-30T03:25:27.037Z,73.60
2023-01-30T03:29:08.723Z,73.70
2023-01-30T03:32:50.348Z,73.70
2023-01-30T03:36:32.037Z,73.70
2023-01-30T03:40:14.854Z,73.70
2023-01-30T03:43:56.495Z,73.70
2023-01-30T03:47:38.215Z,73.70
2023-01-30T03:51:19.831Z,73.70
2023-01-30T03:55:01.689Z,73.70
2023-01-30T03:58:43.348Z,73.70
2023-01-30T04:02:26.244Z,73.70
2023-01-30T04:06:07.954Z,73.70
2023-01-30T04:09:49.557Z,73.70
2023-01-30T04:13:31.174Z,73.70
2023-01-30T04:17:12.825Z,73.70
2023-01-30T04:20:54.449Z,73.80
2023-01-30T04:24:36.065Z,73.80
2023-01-30T04:28:17.690Z,73.70
2023-01-30T04:31:59.331Z,73.80
2023-01-30T04:35:40.944Z,73.80
2023-01-30T04:39:22.544Z,73.80
2023-01-30T04:43:04.143Z,73.70
2023-01-30T04:46:45.765Z,73.80
2023-01-30T04:50:27.409Z,73.70
2023-01-30T04:54:09.077Z,73.80
2023-01-30T04:57:50.691Z,73.70
2023-01-30T05:01:36.853Z,73.70
2023-01-30T05:05:18.806Z,73.70
2023-01-30T05:09:00.609Z,73.80
2023-01-30T05:12:42.282Z,73.70
2023-01-30T05:16:24.152Z,73.80
2023-01-30T05:20:07.201Z,73.70
2023-01-30T05:23:48.853Z,73.70
2023-01-30T05:27:30.694Z,73.90
2023-01-30T05:31:13.329Z,73.80
2023-01-30T05:34:54.961Z,73.80
2023-01-30T05:38:36.575Z,73.80
2023-01-30T05:42:18.263Z,73.70
2023-01-30T05:46:00.612Z,73.80
2023-01-30T05:49:42.225Z,73.80
2023-01-30T05:53:24.639Z,73.80
2023-01-30T05:57:06.341Z,73.80
2023-01-30T06:00:47.980Z,73.80
2023-01-30T06:04:29.655Z,73.80
2023-01-30T06:08:11.432Z,73.80
2023-01-30T06:11:53.370Z,73.70
2023-01-30T06:15:35.021Z,73.80
2023-01-30T06:19:16.651Z,73.80
2023-01-30T06:22:58.261Z,73.80
2023-01-30T06:26:39.885Z,73.80
2023-01-30T06:30:21.545Z,73.70
2023-01-30T06:34:03.230Z,73.70
2023-01-30T06:37:45.310Z,73.70
2023-01-30T06:41:26.925Z,73.70
2023-01-30T06:45:08.789Z,73.70
2023-01-30T06:48:50.507Z,73.70
2023-01-30T06:52:32.117Z,73.70
2023-01-30T06:56:13.717Z,73.70
2023-01-30T06:59:55.326Z,73.70
2023-01-30T07:03:37.064Z,73.70
2023-01-30T07:07:18.681Z,73.70
2023-01-30T07:11:00.346Z,73.70
2023-01-30T07:14:41.970Z,73.70
2023-01-30T07:18:23.594Z,74.20
2023-01-30T07:22:05.195Z,73.70
2023-01-30T07:25:46.807Z,73.70
2023-01-30T07:29:28.418Z,73.70
2023-01-30T07:33:10.151Z,73.70
2023-01-30T07:36:51.766Z,73.70
2023-01-30T07:40:33.489Z,73.70
2023-01-30T07:44:15.222Z,73.60
2023-01-30T07:47:56.855Z,73.70
2023-01-30T07:51:38.508Z,73.60
2023-01-30T07:55:20.475Z,73.60
2023-01-30T07:59:02.730Z,73.60
2023-01-30T08:02:44.381Z,73.60
2023-01-30T08:06:26.116Z,73.70
2023-01-30T08:10:09.774Z,73.70
2023-01-30T08:13:52.553Z,73.70
2023-01-30T08:17:34.468Z,73.70
2023-01-30T08:21:16.062Z,73.70
2023-01-30T08:24:57.735Z,73.70
2023-01-30T08:28:39.390Z,73.70
2023-01-30T08:32:21.017Z,73.70
2023-01-30T08:36:02.671Z,73.70
2023-01-30T08:39:44.302Z,73.60
2023-01-30T08:43:25.989Z,73.60
2023-01-30T08:47:07.602Z,73.60
2023-01-30T08:50:53.190Z,73.60
2023-01-30T08:54:34.861Z,73.60
2023-01-30T08:58:16.606Z,73.60
2023-01-30T09:01:58.221Z,73.60
2023-01-30T09:05:39.999Z,73.60
2023-01-30T09:09:21.617Z,73.70
2023-01-30T09:13:05.285Z,73.60
2023-01-30T09:16:48.205Z,73.70
2023-01-30T09:20:29.876Z,73.60
2023-01-30T09:24:11.539Z,73.70
2023-01-30T09:27:53.639Z,73.60
2023-01-30T09:31:35.370Z,73.60
2023-01-30T09:35:17.071Z,73.60
2023-01-30T09:38:58.707Z,73.60
2023-01-30T09:42:46.413Z,73.60
2023-01-30T09:46:43.483Z,73.60
2023-01-30T09:50:25.084Z,73.60
2023-01-30T09:54:15.131Z,73.60
2023-01-30T09:57:57.724Z,73.60
2023-01-30T10:01:54.285Z,73.60
2023-01-30T10:05:35.973Z,73.60
2023-01-30T10:09:25.665Z,73.60
2023-01-30T10:13:28.437Z,73.60
2023-01-30T10:17:22.250Z,73.60
2023-01-30T10:21:15.808Z,73.60
2023-01-30T10:25:00.263Z,73.50
2023-01-30T10:28:55.610Z,73.50
2023-01-30T10:32:46.395Z,73.50
2023-01-30T10:36:32.695Z,73.50
2023-01-30T10:40:32.827Z,73.50
2023-01-30T10:44:14.766Z,73.50
2023-01-30T10:48:02.136Z,73.60
2023-01-30T10:52:00.366Z,73.50
2023-01-30T10:55:47.763Z,73.60
2023-01-30T10:59:38.489Z,73.50
2023-01-30T11:03:23.131Z,73.50
2023-01-30T11:07:04.860Z,73.50
2023-01-30T11:10:46.511Z,73.50
2023-01-30T11:14:28.108Z,73.50
2023-01-30T11:18:49.789Z,73.50
2023-01-30T11:22:14.500Z,73.50
2023-01-30T11:26:10.361Z,73.50
2023-01-30T11:30:02.333Z,73.50
2023-01-30T11:33:44.118Z,73.50
2023-01-30T11:37:30.521Z,73.50
2023-01-30T11:41:20.627Z,73.40
2023-01-30T11:45:16.525Z,73.50
2023-01-30T11:49:45.788Z,73.40
2023-01-30T11:53:03.824Z,73.40
2023-01-30T11:56:48.253Z,73.50
2023-01-30T12:00:38.237Z,73.50
2023-01-30T12:04:20.433Z,73.40
2023-01-30T12:08:24.759Z,73.40
2023-01-30T12:12:32.865Z,73.50
2023-01-30T12:16:14.593Z,73.40
2023-01-30T12:20:22.441Z,73.40
2023-01-30T12:24:24.301Z,73.40
2023-01-30T12:28:20.262Z,73.40
2023-01-30T12:32:01.896Z,73.40
2023-01-30T12:35:44.200Z,73.50
2023-01-30T12:39:44.389Z,73.40
2023-01-30T12:43:29.084Z,73.40
2023-01-30T12:47:33.966Z,73.40
2023-01-30T12:51:18.761Z,73.40
2023-01-30T12:55:05.535Z,73.40
2023-01-30T12:58:56.318Z,73.40
2023-01-30T13:02:56.683Z,73.40
2023-01-30T13:06:41.274Z,73.40
2023-01-30T13:10:35.066Z,73.40
2023-01-30T13:14:28.925Z,73.40
2023-01-30T13:18:15.859Z,73.40
2023-01-30T13:22:06.451Z,73.40
2023-01-30T13:26:06.081Z,73.40
2023-01-30T13:29:48.350Z,73.40
2023-01-30T13:33:32.106Z,73.40
2023-01-30T13:37:15.268Z,73.40
2023-01-30T13:40:57.648Z,73.40
2023-01-30T13:44:42.243Z,73.40
2023-01-30T13:48:38.173Z,73.40
2023-01-30T13:52:38.313Z,73.40
2023-01-30T13:56:41.181Z,73.40
2023-01-30T14:00:26.638Z,73.30
2023-01-30T14:04:28.239Z,73.40
2023-01-30T14:08:17.265Z,73.40
2023-01-30T14:12:00.559Z,73.40
2023-01-30T14:15:53.078Z,73.40
2023-01-30T14:19:39.415Z,73.30
2023-01-30T14:23:32.559Z,73.30
2023-01-30T14:27:26.433Z,73.30
2023-01-30T14:31:08.200Z,73.30
2023-01-30T14:35:09.807Z,73.30
2023-01-30T14:39:17.695Z,73.40
2023-01-30T14:43:19.422Z,73.40
2023-01-30T14:47:01.077Z,73.40
2023-01-30T14:51:23.107Z,73.40
2023-01-30T14:55:05.168Z,73.30
2023-01-30T14:58:55.999Z,73.30
2023-01-30T15:02:44.068Z,73.40
2023-01-30T15:06:27.407Z,73.30
2023-01-30T15:10:23.714Z,73.30
2023-01-30T15:14:24.146Z,73.30
2023-01-30T15:18:12.241Z,73.30
2023-01-30T15:21:53.826Z,73.30
2023-01-30T15:25:38.474Z,73.30
2023-01-30T15:29:24.141Z,73.30
2023-01-30T15:33:29.308Z,73.30
2023-01-30T15:37:28.211Z,73.30
2023-01-30T15:41:10.495Z,73.30
2023-01-30T15:45:02.412Z,73.30
2023-01-30T15:48:46.747Z,73.30
2023-01-30T15:52:39.925Z,73.30
2023-01-30T15:56:24.464Z,73.30
2023-01-30T16:00:07.559Z,73.30
2023-01-30T16:03:53.378Z,73.30
2023-01-30T16:07:35.025Z,73.30
2023-01-30T16:11:31.313Z,73.30
2023-01-30T16:15:19.576Z,73.30
2023-01-30T16:19:06.797Z,73.30
2023-01-30T16:22:48.607Z,73.30
2023-01-30T16:26:31.878Z,73.30
2023-01-30T16:30:13.654Z,73.30
2023-01-30T16:33:55.269Z,73.20
2023-01-30T16:37:36.871Z,73.30
2023-01-30T16:41:39.486Z,73.20
2023-01-30T16:45:43.105Z,73.30
2023-01-30T16:49:38.388Z,73.20
2023-01-30T16:53:22.276Z,73.20
2023-01-30T16:57:04.367Z,73.20
2023-01-30T17:00:49.568Z,73.20
2023-01-30T17:04:32.240Z,73.20
2023-01-30T17:08:32.669Z,73.20
2023-01-30T17:12:26.516Z,73.20
2023-01-30T17:16:41.423Z,73.20
2023-01-30T17:20:23.362Z,73.30
2023-01-30T17:24:05.685Z,73.20
2023-01-30T17:27:47.868Z,73.30
2023-01-30T17:31:29.586Z,73.20
2023-01-30T17:35:11.598Z,73.20
2023-01-30T17:38:53.473Z,73.20
2023-01-30T17:42:35.086Z,73.20
2023-01-30T17:46:17.107Z,73.20
2023-01-30T17:49:58.790Z,73.30
2023-01-30T17:53:41.262Z,73.20
2023-01-30T17:57:25.049Z,73.20
2023-01-30T18:01:06.742Z,73.20
2023-01-30T18:04:48.353Z,73.20
2023-01-30T18:08:29.999Z,73.20
2023-01-30T18:12:11.621Z,73.20
2023-01-30T18:15:55.840Z,73.20
2023-01-30T18:19:37.466Z,73.30
2023-01-30T18:23:19.779Z,73.20
2023-01-30T18:27:01.977Z,73.20
2023-01-30T18:30:43.749Z,73.20
2023-01-30T18:34:25.489Z,73.20
2023-01-30T18:38:07.119Z,73.20
2023-01-30T18:41:48.726Z,73.20
2023-01-30T18:45:30.375Z,73.20
2023-01-30T18:49:12.009Z,73.30
2023-01-30T18:52:53.631Z,73.20
2023-01-30T18:56:36.275Z,73.20
2023-01-30T19:00:19.522Z,73.20
2023-01-30T19:04:01.918Z,73.20
2023-01-30T19:07:43.507Z,73.20
2023-01-30T19:11:44.050Z,73.80
2023-01-30T19:15:25.649Z,73.20
2023-01-30T19:19:08.424Z,73.20
2023-01-30T19:22:50.120Z,73.20
2023-01-30T19:26:32.086Z,73.20
2023-01-30T19:30:13.909Z,73.20
2023-01-30T19:33:58.079Z,73.20
2023-01-30T19:37:39.717Z,73.20
2023-01-30T19:41:31.917Z,73.20
2023-01-30T19:45:14.487Z,73.20
2023-01-30T19:48:56.326Z,73.80
2023-01-30T19:52:37.917Z,73.10
2023-01-30T19:56:21.792Z,73.20
2023-01-30T20:00:04.853Z,73.20
2023-01-30T20:03:46.810Z,73.10
2023-01-30T20:07:28.403Z,73.10
2023-01-30T20:11:14.015Z,73.20
2023-01-30T20:14:55.635Z,73.10
2023-01-30T20:18:38.391Z,73.20
2023-01-30T20:22:20.018Z,73.10
2023-01-30T20:26:05.385Z,73.10
2023-01-30T20:29:46.983Z,73.10
2023-01-30T20:33:30.883Z,73.10
2023-01-30T20:37:12.524Z,73.10
2023-01-30T20:41:00.234Z,73.10
2023-01-30T20:44:41.838Z,73.10
2023-01-30T20:48:23.499Z,73.10
2023-01-30T20:52:05.345Z,73.10
2023-01-30T20:55:48.723Z,73.10
2023-01-30T20:59:30.337Z,73.20
2023-01-30T21:03:11.949Z,73.10
2023-01-30T21:06:53.607Z,73.10
2023-01-30T21:10:35.816Z,73.10
2023-01-30T21:14:17.708Z,73.10
2023-01-30T21:17:59.346Z,73.10
2023-01-30T21:21:50.115Z,73.10
2023-01-30T21:25:31.862Z,73.10
2023-01-30T21:29:15.069Z,73.10
2023-01-30T21:32:57.609Z,73.10
2023-01-30T21:36:39.330Z,73.10
2023-01-30T21:40:39.421Z,73.10
2023-01-30T21:44:23.983Z,73.10
2023-01-30T21:48:05.649Z,73.10
2023-01-30T21:51:48.630Z,73.10
2023-01-30T21:55:30.288Z,73.10
2023-01-30T21:59:12.343Z,73.10
2023-01-30T22:02:54.016Z,73.00
2023-01-30T22:06:36.803Z,73.10
2023-01-30T22:10:18.567Z,73.70
2023-01-30T22:14:00.163Z,73.00
2023-01-30T22:17:41.767Z,73.10
2023-01-30T22:21:24.364Z,73.00
2023-01-30T22:25:06.560Z,73.00
2023-01-30T22:28:48.247Z,73.10
2023-01-30T22:32:29.865Z,73.00
2023-01-30T22:36:11.797Z,73.00
2023-01-30T22:39:53.902Z,73.10
2023-01-30T22:43:36.176Z,73.00
2023-01-30T22:47:17.906Z,73.10
2023-01-30T22:51:10.639Z,73.00
2023-01-30T22:54:52.299Z,73.00
2023-01-30T22:58:34.296Z,73.00
2023-01-30T23:02:15.970Z,73.00
2023-01-30T23:05:58.635Z,73.00
2023-01-30T23:09:40.393Z,73.10
2023-01-30T23:13:22.063Z,73.00
2023-01-30T23:17:22.869Z,73.00
2023-01-30T23:21:09.643Z,73.00
2023-01-30T23:24:51.655Z,73.60
2023-01-30T23:28:33.797Z,73.00
2023-01-30T23:32:18.991Z,73.00
2023-01-30T23:36:01.432Z,73.00
2023-01-30T23:39:43.284Z,73.10
2023-01-30T23:43:24.952Z,73.00
2023-01-30T23:47:06.596Z,73.00
2023-01-30T23:50:48.257Z,73.10
2023-01-30T23:54:29.853Z,73.00
2023-01-30T23:58:11.476Z,73.00
